sensor_id;sensor_type;location;lat;lon;timestamp;temperature;humidity
54846;DHT22;53889;50.084;8.646;2023-04-01T00:02:23;10.80;99.90
54846;DHT22;53889;50.084;8.646;2023-04-01T00:04:49;10.80;99.90
54846;DHT22;53889;50.084;8.646;2023-04-01T00:07:17;10.80;99.90
54846;DHT22;53889;50.084;8.646;2023-04-01T00:09:44;10.80;99.90
54846;DHT22;53889;50.084;8.646;2023-04-01T00:12:11;10.80;99.90
54846;DHT22;53889;50.084;8.646;2023-04-01T00:14:37;10.80;99.90
54846;DHT22;53889;50.084;8.646;2023-04-01T00:17:05;10.90;99.90
54846;DHT22;53889;50.084;8.646;2023-04-01T00:19:31;10.80;99.90
54846;DHT22;53889;50.084;8.646;2023-04-01T00:21:58;10.80;99.90
54846;DHT22;53889;50.084;8.646;2023-04-01T00:24:27;10.80;99.90
54846;DHT22;53889;50.084;8.646;2023-04-01T00:26:55;10.80;99.90
54846;DHT22;53889;50.084;8.646;2023-04-01T00:29:21;10.80;99.90
54846;DHT22;53889;50.084;8.646;2023-04-01T00:31:49;10.70;99.90
54846;DHT22;53889;50.084;8.646;2023-04-01T00:34:16;10.80;99.90
54846;DHT22;53889;50.084;8.646;2023-04-01T00:36:42;10.80;99.90
54846;DHT22;53889;50.084;8.646;2023-04-01T00:39:09;10.80;99.90
54846;DHT22;53889;50.084;8.646;2023-04-01T00:41:37;10.80;99.90
54846;DHT22;53889;50.084;8.646;2023-04-01T00:44:19;10.70;99.90
54846;DHT22;53889;50.084;8.646;2023-04-01T00:46:46;10.70;99.90
54846;DHT22;53889;50.084;8.646;2023-04-01T00:49:14;10.70;99.90
54846;DHT22;53889;50.084;8.646;2023-04-01T00:51:43;10.70;99.90
54846;DHT22;53889;50.084;8.646;2023-04-01T00:54:12;10.70;99.90
54846;DHT22;53889;50.084;8.646;2023-04-01T00:56:45;10.70;99.90
54846;DHT22;53889;50.084;8.646;2023-04-01T00:59:17;10.70;99.90
54846;DHT22;53889;50.084;8.646;2023-04-01T01:01:45;10.70;99.90
54846;DHT22;53889;50.084;8.646;2023-04-01T01:04:26;10.70;99.90
54846;DHT22;53889;50.084;8.646;2023-04-01T01:07:00;10.70;99.90
54846;DHT22;53889;50.084;8.646;2023-04-01T01:09:37;10.70;99.90
54846;DHT22;53889;50.084;8.646;2023-04-01T01:12:11;10.70;99.90
54846;DHT22;53889;50.084;8.646;2023-04-01T01:14:48;10.70;99.90
54846;DHT22;53889;50.084;8.646;2023-04-01T01:17:24;10.70;99.90
54846;DHT22;53889;50.084;8.646;2023-04-01T01:19:57;10.70;99.90
54846;DHT22;53889;50.084;8.646;2023-04-01T01:22:49;10.70;99.90
54846;DHT22;53889;50.084;8.646;2023-04-01T01:25:29;10.80;99.90
54846;DHT22;53889;50.084;8.646;2023-04-01T01:28:14;10.80;99.90
54846;DHT22;53889;50.084;8.646;2023-04-01T01:30:52;10.80;99.90
54846;DHT22;53889;50.084;8.646;2023-04-01T01:33:30;10.80;99.90
54846;DHT22;53889;50.084;8.646;2023-04-01T01:36:02;10.80;99.90
54846;DHT22;53889;50.084;8.646;2023-04-01T01:38:34;10.70;99.90
54846;DHT22;53889;50.084;8.646;2023-04-01T01:41:05;10.70;99.90
54846;DHT22;53889;50.084;8.646;2023-04-01T01:43:35;10.70;99.90
54846;DHT22;53889;50.084;8.646;2023-04-01T01:46:06;10.70;99.90
54846;DHT22;53889;50.084;8.646;2023-04-01T01:48:35;10.70;99.90
54846;DHT22;53889;50.084;8.646;2023-04-01T01:51:05;10.70;99.90
54846;DHT22;53889;50.084;8.646;2023-04-01T01:53:32;10.40;99.90
54846;DHT22;53889;50.084;8.646;2023-04-01T01:55:59;10.70;99.90
54846;DHT22;53889;50.084;8.646;2023-04-01T01:58:29;10.70;99.90
54846;DHT22;53889;50.084;8.646;2023-04-01T02:00:59;10.70;99.90
54846;DHT22;53889;50.084;8.646;2023-04-01T02:03:29;10.70;99.90
54846;DHT22;53889;50.084;8.646;2023-04-01T02:05:59;10.60;99.90
54846;DHT22;53889;50.084;8.646;2023-04-01T02:08:31;10.70;99.90
54846;DHT22;53889;50.084;8.646;2023-04-01T02:11:04;10.70;99.90
54846;DHT22;53889;50.084;8.646;2023-04-01T02:13:40;10.70;99.90
54846;DHT22;53889;50.084;8.646;2023-04-01T02:16:13;10.70;99.90
54846;DHT22;53889;50.084;8.646;2023-04-01T02:18:41;10.70;99.90
54846;DHT22;53889;50.084;8.646;2023-04-01T02:21:10;10.70;99.90
54846;DHT22;53889;50.084;8.646;2023-04-01T02:23:40;10.70;99.90
54846;DHT22;53889;50.084;8.646;2023-04-01T02:26:08;10.70;99.90
54846;DHT22;53889;50.084;8.646;2023-04-01T02:28:38;10.70;99.90
54846;DHT22;53889;50.084;8.646;2023-04-01T02:31:06;10.70;99.90
54846;DHT22;53889;50.084;8.646;2023-04-01T02:33:33;10.70;99.90
54846;DHT22;53889;50.084;8.646;2023-04-01T02:36:00;10.70;99.90
54846;DHT22;53889;50.084;8.646;2023-04-01T02:38:27;10.60;99.90
54846;DHT22;53889;50.084;8.646;2023-04-01T02:40:59;10.70;99.90
54846;DHT22;53889;50.084;8.646;2023-04-01T02:43:27;10.70;99.90
54846;DHT22;53889;50.084;8.646;2023-04-01T02:45:55;10.70;99.90
54846;DHT22;53889;50.084;8.646;2023-04-01T02:48:22;10.70;99.90
54846;DHT22;53889;50.084;8.646;2023-04-01T02:50:49;10.70;99.90
54846;DHT22;53889;50.084;8.646;2023-04-01T02:53:16;10.60;99.90
54846;DHT22;53889;50.084;8.646;2023-04-01T02:55:43;10.70;99.90
54846;DHT22;53889;50.084;8.646;2023-04-01T02:58:11;10.60;99.90
54846;DHT22;53889;50.084;8.646;2023-04-01T03:00:38;10.60;99.90
54846;DHT22;53889;50.084;8.646;2023-04-01T03:03:05;10.60;99.90
54846;DHT22;53889;50.084;8.646;2023-04-01T03:05:31;10.50;99.90
54846;DHT22;53889;50.084;8.646;2023-04-01T03:07:58;10.50;99.90
54846;DHT22;53889;50.084;8.646;2023-04-01T03:10:25;10.50;99.90
54846;DHT22;53889;50.084;8.646;2023-04-01T03:12:52;10.40;99.90
54846;DHT22;53889;50.084;8.646;2023-04-01T03:15:20;10.40;99.90
54846;DHT22;53889;50.084;8.646;2023-04-01T03:17:46;10.40;99.90
54846;DHT22;53889;50.084;8.646;2023-04-01T03:20:14;10.40;99.90
54846;DHT22;53889;50.084;8.646;2023-04-01T03:22:41;10.40;99.90
54846;DHT22;53889;50.084;8.646;2023-04-01T03:25:09;10.40;99.90
54846;DHT22;53889;50.084;8.646;2023-04-01T03:27:37;10.50;99.90
54846;DHT22;53889;50.084;8.646;2023-04-01T03:30:05;10.50;99.90
54846;DHT22;53889;50.084;8.646;2023-04-01T03:32:39;10.50;99.90
54846;DHT22;53889;50.084;8.646;2023-04-01T03:35:06;10.50;99.90
54846;DHT22;53889;50.084;8.646;2023-04-01T03:37:32;10.50;99.90
54846;DHT22;53889;50.084;8.646;2023-04-01T03:39:59;10.50;99.90
54846;DHT22;53889;50.084;8.646;2023-04-01T03:42:26;10.40;99.90
54846;DHT22;53889;50.084;8.646;2023-04-01T03:44:53;10.40;99.90
54846;DHT22;53889;50.084;8.646;2023-04-01T03:47:19;10.50;99.90
54846;DHT22;53889;50.084;8.646;2023-04-01T03:49:48;10.50;99.90
54846;DHT22;53889;50.084;8.646;2023-04-01T03:52:14;10.40;99.90
54846;DHT22;53889;50.084;8.646;2023-04-01T03:54:41;10.40;99.90
54846;DHT22;53889;50.084;8.646;2023-04-01T03:57:08;10.50;99.90
54846;DHT22;53889;50.084;8.646;2023-04-01T03:59:35;10.50;99.90
54846;DHT22;53889;50.084;8.646;2023-04-01T04:02:02;10.50;99.90
54846;DHT22;53889;50.084;8.646;2023-04-01T04:04:29;10.40;99.90
54846;DHT22;53889;50.084;8.646;2023-04-01T04:06:58;10.40;99.90
54846;DHT22;53889;50.084;8.646;2023-04-01T04:09:25;10.50;99.90
54846;DHT22;53889;50.084;8.646;2023-04-01T04:11:53;10.50;99.90
54846;DHT22;53889;50.084;8.646;2023-04-01T04:14:20;10.50;99.90
54846;DHT22;53889;50.084;8.646;2023-04-01T04:16:47;10.50;99.90
54846;DHT22;53889;50.084;8.646;2023-04-01T04:19:15;10.50;99.90
54846;DHT22;53889;50.084;8.646;2023-04-01T04:21:42;10.50;99.90
54846;DHT22;53889;50.084;8.646;2023-04-01T04:24:10;10.50;99.90
54846;DHT22;53889;50.084;8.646;2023-04-01T04:26:58;10.50;99.90
54846;DHT22;53889;50.084;8.646;2023-04-01T04:29:24;10.50;99.90
54846;DHT22;53889;50.084;8.646;2023-04-01T04:31:52;10.50;99.90
54846;DHT22;53889;50.084;8.646;2023-04-01T04:34:18;10.50;99.90
54846;DHT22;53889;50.084;8.646;2023-04-01T04:36:46;10.50;99.90
54846;DHT22;53889;50.084;8.646;2023-04-01T04:39:15;10.50;99.90
54846;DHT22;53889;50.084;8.646;2023-04-01T04:41:42;10.50;99.90
54846;DHT22;53889;50.084;8.646;2023-04-01T04:44:09;10.50;99.90
54846;DHT22;53889;50.084;8.646;2023-04-01T04:46:36;10.50;99.90
54846;DHT22;53889;50.084;8.646;2023-04-01T04:49:11;10.50;99.90
54846;DHT22;53889;50.084;8.646;2023-04-01T04:51:38;10.50;99.90
54846;DHT22;53889;50.084;8.646;2023-04-01T04:54:06;10.40;99.90
54846;DHT22;53889;50.084;8.646;2023-04-01T04:56:47;10.50;99.90
54846;DHT22;53889;50.084;8.646;2023-04-01T04:59:14;10.40;99.90
54846;DHT22;53889;50.084;8.646;2023-04-01T05:01:50;10.50;99.90
54846;DHT22;53889;50.084;8.646;2023-04-01T05:04:17;10.50;99.90
54846;DHT22;53889;50.084;8.646;2023-04-01T05:06:44;10.50;99.90
54846;DHT22;53889;50.084;8.646;2023-04-01T05:09:11;10.50;99.90
54846;DHT22;53889;50.084;8.646;2023-04-01T05:11:37;10.50;99.90
54846;DHT22;53889;50.084;8.646;2023-04-01T05:14:12;10.50;99.90
54846;DHT22;53889;50.084;8.646;2023-04-01T05:16:39;10.50;99.90
54846;DHT22;53889;50.084;8.646;2023-04-01T05:19:06;10.50;99.90
54846;DHT22;53889;50.084;8.646;2023-04-01T05:21:33;10.50;99.90
54846;DHT22;53889;50.084;8.646;2023-04-01T05:24:00;10.50;99.90
54846;DHT22;53889;50.084;8.646;2023-04-01T05:26:28;10.50;99.90
54846;DHT22;53889;50.084;8.646;2023-04-01T05:28:56;10.50;99.90
54846;DHT22;53889;50.084;8.646;2023-04-01T05:31:24;10.50;99.90
54846;DHT22;53889;50.084;8.646;2023-04-01T05:33:51;10.40;99.90
54846;DHT22;53889;50.084;8.646;2023-04-01T05:36:19;10.30;99.90
54846;DHT22;53889;50.084;8.646;2023-04-01T05:38:46;10.30;99.90
54846;DHT22;53889;50.084;8.646;2023-04-01T05:41:13;10.30;99.90
54846;DHT22;53889;50.084;8.646;2023-04-01T05:43:43;10.20;99.90
54846;DHT22;53889;50.084;8.646;2023-04-01T05:46:30;10.20;99.90
54846;DHT22;53889;50.084;8.646;2023-04-01T05:49:17;10.20;99.90
54846;DHT22;53889;50.084;8.646;2023-04-01T05:51:44;10.10;99.90
54846;DHT22;53889;50.084;8.646;2023-04-01T05:54:11;10.00;99.90
54846;DHT22;53889;50.084;8.646;2023-04-01T05:56:38;10.00;99.90
54846;DHT22;53889;50.084;8.646;2023-04-01T05:59:05;9.90;99.90
54846;DHT22;53889;50.084;8.646;2023-04-01T06:01:33;9.90;99.90
54846;DHT22;53889;50.084;8.646;2023-04-01T06:04:00;9.90;99.90
54846;DHT22;53889;50.084;8.646;2023-04-01T06:06:27;9.80;99.90
54846;DHT22;53889;50.084;8.646;2023-04-01T06:09:10;9.80;99.90
54846;DHT22;53889;50.084;8.646;2023-04-01T06:11:46;9.70;99.90
54846;DHT22;53889;50.084;8.646;2023-04-01T06:14:27;9.80;99.90
54846;DHT22;53889;50.084;8.646;2023-04-01T06:17:08;9.70;99.90
54846;DHT22;53889;50.084;8.646;2023-04-01T06:19:42;9.80;99.90
54846;DHT22;53889;50.084;8.646;2023-04-01T06:22:30;9.80;99.90
54846;DHT22;53889;50.084;8.646;2023-04-01T06:25:18;9.80;99.90
54846;DHT22;53889;50.084;8.646;2023-04-01T06:28:00;9.80;99.90
54846;DHT22;53889;50.084;8.646;2023-04-01T06:30:41;9.80;99.90
54846;DHT22;53889;50.084;8.646;2023-04-01T06:33:35;9.80;99.90
54846;DHT22;53889;50.084;8.646;2023-04-01T06:36:19;9.80;99.90
54846;DHT22;53889;50.084;8.646;2023-04-01T06:39:13;9.80;99.90
54846;DHT22;53889;50.084;8.646;2023-04-01T06:42:01;9.70;99.90
54846;DHT22;53889;50.084;8.646;2023-04-01T06:44:44;9.80;99.90
54846;DHT22;53889;50.084;8.646;2023-04-01T06:47:45;9.80;99.90
54846;DHT22;53889;50.084;8.646;2023-04-01T06:50:38;9.80;99.90
54846;DHT22;53889;50.084;8.646;2023-04-01T06:53:31;9.80;99.90
54846;DHT22;53889;50.084;8.646;2023-04-01T06:56:33;9.80;99.90
54846;DHT22;53889;50.084;8.646;2023-04-01T06:59:11;9.80;99.90
54846;DHT22;53889;50.084;8.646;2023-04-01T07:01:41;9.80;99.90
54846;DHT22;53889;50.084;8.646;2023-04-01T07:04:13;9.80;99.90
54846;DHT22;53889;50.084;8.646;2023-04-01T07:06:46;9.80;99.90
54846;DHT22;53889;50.084;8.646;2023-04-01T07:09:17;9.80;99.90
54846;DHT22;53889;50.084;8.646;2023-04-01T07:12:19;9.80;99.90
54846;DHT22;53889;50.084;8.646;2023-04-01T07:15:15;9.80;99.90
54846;DHT22;53889;50.084;8.646;2023-04-01T07:17:43;9.80;99.90
54846;DHT22;53889;50.084;8.646;2023-04-01T07:20:15;9.90;99.90
54846;DHT22;53889;50.084;8.646;2023-04-01T07:22:47;9.80;99.90
54846;DHT22;53889;50.084;8.646;2023-04-01T07:25:31;9.90;99.90
54846;DHT22;53889;50.084;8.646;2023-04-01T07:28:19;9.90;99.90
54846;DHT22;53889;50.084;8.646;2023-04-01T07:31:05;9.90;99.90
54846;DHT22;53889;50.084;8.646;2023-04-01T07:33:39;9.90;99.90
54846;DHT22;53889;50.084;8.646;2023-04-01T07:36:14;9.90;99.90
54846;DHT22;53889;50.084;8.646;2023-04-01T07:38:54;10.50;99.90
54846;DHT22;53889;50.084;8.646;2023-04-01T07:41:49;10.00;99.90
54846;DHT22;53889;50.084;8.646;2023-04-01T07:44:24;10.10;99.90
54846;DHT22;53889;50.084;8.646;2023-04-01T07:47:08;10.00;99.90
54846;DHT22;53889;50.084;8.646;2023-04-01T07:49:43;10.10;99.90
54846;DHT22;53889;50.084;8.646;2023-04-01T07:52:18;10.10;99.90
54846;DHT22;53889;50.084;8.646;2023-04-01T07:54:55;10.70;99.90
54846;DHT22;53889;50.084;8.646;2023-04-01T07:57:31;10.20;99.90
54846;DHT22;53889;50.084;8.646;2023-04-01T08:00:06;10.20;99.90
54846;DHT22;53889;50.084;8.646;2023-04-01T08:03:07;10.30;99.90
54846;DHT22;53889;50.084;8.646;2023-04-01T08:05:41;10.30;99.90
54846;DHT22;53889;50.084;8.646;2023-04-01T08:08:19;10.40;99.90
54846;DHT22;53889;50.084;8.646;2023-04-01T08:11:16;10.50;99.90
54846;DHT22;53889;50.084;8.646;2023-04-01T08:14:13;10.50;99.90
54846;DHT22;53889;50.084;8.646;2023-04-01T08:17:04;10.60;99.90
54846;DHT22;53889;50.084;8.646;2023-04-01T08:19:51;10.50;99.90
54846;DHT22;53889;50.084;8.646;2023-04-01T08:22:26;10.60;99.90
54846;DHT22;53889;50.084;8.646;2023-04-01T08:24:57;10.50;99.90
54846;DHT22;53889;50.084;8.646;2023-04-01T08:27:34;10.50;99.90
54846;DHT22;53889;50.084;8.646;2023-04-01T08:30:06;10.50;99.90
54846;DHT22;53889;50.084;8.646;2023-04-01T08:32:43;10.50;99.90
54846;DHT22;53889;50.084;8.646;2023-04-01T08:35:17;10.50;99.90
54846;DHT22;53889;50.084;8.646;2023-04-01T08:37:48;10.60;99.90
54846;DHT22;53889;50.084;8.646;2023-04-01T08:40:53;10.60;99.90
54846;DHT22;53889;50.084;8.646;2023-04-01T08:43:36;10.60;99.90
54846;DHT22;53889;50.084;8.646;2023-04-01T08:46:18;10.60;99.90
54846;DHT22;53889;50.084;8.646;2023-04-01T08:49:08;11.60;99.90
54846;DHT22;53889;50.084;8.646;2023-04-01T08:52:13;10.70;99.90
54846;DHT22;53889;50.084;8.646;2023-04-01T08:55:21;10.70;99.90
54846;DHT22;53889;50.084;8.646;2023-04-01T08:58:30;10.70;99.90
54846;DHT22;53889;50.084;8.646;2023-04-01T09:01:16;10.70;99.90
54846;DHT22;53889;50.084;8.646;2023-04-01T09:04:13;10.80;99.90
54846;DHT22;53889;50.084;8.646;2023-04-01T09:06:56;10.80;99.90
54846;DHT22;53889;50.084;8.646;2023-04-01T09:09:55;10.80;99.90
54846;DHT22;53889;50.084;8.646;2023-04-01T09:12:33;10.80;99.90
54846;DHT22;53889;50.084;8.646;2023-04-01T09:18:40;10.70;99.90
54846;DHT22;53889;50.084;8.646;2023-04-01T09:21:37;10.80;99.90
54846;DHT22;53889;50.084;8.646;2023-04-01T09:27:05;10.80;99.90
54846;DHT22;53889;50.084;8.646;2023-04-01T09:32:53;10.80;99.90
54846;DHT22;53889;50.084;8.646;2023-04-01T09:35:38;10.90;99.90
54846;DHT22;53889;50.084;8.646;2023-04-01T09:38:20;11.00;99.90
54846;DHT22;53889;50.084;8.646;2023-04-01T09:40:54;11.00;99.90
54846;DHT22;53889;50.084;8.646;2023-04-01T09:43:48;11.00;99.90
54846;DHT22;53889;50.084;8.646;2023-04-01T09:46:26;11.10;99.90
54846;DHT22;53889;50.084;8.646;2023-04-01T09:49:18;11.10;99.90
54846;DHT22;53889;50.084;8.646;2023-04-01T09:51:59;11.70;99.90
54846;DHT22;53889;50.084;8.646;2023-04-01T09:54:46;11.10;99.90
54846;DHT22;53889;50.084;8.646;2023-04-01T09:57:39;11.20;99.90
54846;DHT22;53889;50.084;8.646;2023-04-01T10:00:53;11.30;99.90
54846;DHT22;53889;50.084;8.646;2023-04-01T10:03:55;11.30;99.90
54846;DHT22;53889;50.084;8.646;2023-04-01T10:06:47;11.30;99.90
54846;DHT22;53889;50.084;8.646;2023-04-01T10:09:46;11.40;99.90
54846;DHT22;53889;50.084;8.646;2023-04-01T10:12:33;11.30;99.90
54846;DHT22;53889;50.084;8.646;2023-04-01T10:18:46;11.50;99.90
54846;DHT22;53889;50.084;8.646;2023-04-01T10:21:47;11.50;99.90
54846;DHT22;53889;50.084;8.646;2023-04-01T10:27:44;11.60;99.90
54846;DHT22;53889;50.084;8.646;2023-04-01T10:30:57;11.70;99.90
54846;DHT22;53889;50.084;8.646;2023-04-01T10:33:58;12.10;99.90
54846;DHT22;53889;50.084;8.646;2023-04-01T10:36:43;11.80;99.90
54846;DHT22;53889;50.084;8.646;2023-04-01T10:46:31;11.60;99.90
54846;DHT22;53889;50.084;8.646;2023-04-01T10:52:23;11.60;99.90
54846;DHT22;53889;50.084;8.646;2023-04-01T10:59:01;11.60;99.90
54846;DHT22;53889;50.084;8.646;2023-04-01T11:02:47;11.60;99.90
54846;DHT22;53889;50.084;8.646;2023-04-01T11:06:17;11.60;99.90
54846;DHT22;53889;50.084;8.646;2023-04-01T11:09:25;11.70;99.90
54846;DHT22;53889;50.084;8.646;2023-04-01T11:12:31;11.70;99.90
54846;DHT22;53889;50.084;8.646;2023-04-01T11:18:39;12.00;99.90
54846;DHT22;53889;50.084;8.646;2023-04-01T11:21:42;12.00;99.90
54846;DHT22;53889;50.084;8.646;2023-04-01T11:24:38;12.10;99.90
54846;DHT22;53889;50.084;8.646;2023-04-01T11:27:38;12.30;99.90
54846;DHT22;53889;50.084;8.646;2023-04-01T11:30:16;12.30;99.90
54846;DHT22;53889;50.084;8.646;2023-04-01T11:32:53;12.40;99.90
54846;DHT22;53889;50.084;8.646;2023-04-01T11:38:23;12.30;99.90
54846;DHT22;53889;50.084;8.646;2023-04-01T11:40:55;12.40;99.90
54846;DHT22;53889;50.084;8.646;2023-04-01T11:44:00;12.40;99.90
54846;DHT22;53889;50.084;8.646;2023-04-01T11:46:49;12.40;99.90
54846;DHT22;53889;50.084;8.646;2023-04-01T11:49:35;12.40;99.90
54846;DHT22;53889;50.084;8.646;2023-04-01T11:52:31;12.40;99.90
54846;DHT22;53889;50.084;8.646;2023-04-01T11:55:10;12.30;99.90
54846;DHT22;53889;50.084;8.646;2023-04-01T11:57:59;12.20;99.90
54846;DHT22;53889;50.084;8.646;2023-04-01T12:00:46;12.20;99.90
54846;DHT22;53889;50.084;8.646;2023-04-01T12:03:26;12.20;99.90
54846;DHT22;53889;50.084;8.646;2023-04-01T12:05:58;12.20;99.90
54846;DHT22;53889;50.084;8.646;2023-04-01T12:08:38;12.30;99.90
54846;DHT22;53889;50.084;8.646;2023-04-01T12:11:11;12.30;99.90
54846;DHT22;53889;50.084;8.646;2023-04-01T12:13:48;12.30;99.90
54846;DHT22;53889;50.084;8.646;2023-04-01T12:16:26;12.40;99.90
54846;DHT22;53889;50.084;8.646;2023-04-01T12:19:00;12.60;99.90
54846;DHT22;53889;50.084;8.646;2023-04-01T12:21:35;12.70;99.90
54846;DHT22;53889;50.084;8.646;2023-04-01T12:27:16;12.60;99.90
54846;DHT22;53889;50.084;8.646;2023-04-01T12:32:44;12.50;99.90
54846;DHT22;53889;50.084;8.646;2023-04-01T12:35:18;12.50;99.90
54846;DHT22;53889;50.084;8.646;2023-04-01T12:37:54;12.40;99.90
54846;DHT22;53889;50.084;8.646;2023-04-01T12:40:51;12.30;99.90
54846;DHT22;53889;50.084;8.646;2023-04-01T12:43:57;12.30;99.90
54846;DHT22;53889;50.084;8.646;2023-04-01T12:46:30;12.30;99.90
54846;DHT22;53889;50.084;8.646;2023-04-01T12:49:16;12.10;99.90
54846;DHT22;53889;50.084;8.646;2023-04-01T12:52:03;12.00;99.90
54846;DHT22;53889;50.084;8.646;2023-04-01T12:54:56;12.00;99.90
54846;DHT22;53889;50.084;8.646;2023-04-01T12:57:39;12.00;99.90
54846;DHT22;53889;50.084;8.646;2023-04-01T13:00:20;12.00;99.90
54846;DHT22;53889;50.084;8.646;2023-04-01T13:03:06;12.10;99.90
54846;DHT22;53889;50.084;8.646;2023-04-01T13:06:06;12.10;99.90
54846;DHT22;53889;50.084;8.646;2023-04-01T13:08:41;12.20;99.90
54846;DHT22;53889;50.084;8.646;2023-04-01T13:11:14;12.20;99.90
54846;DHT22;53889;50.084;8.646;2023-04-01T13:14:21;12.20;99.90
54846;DHT22;53889;50.084;8.646;2023-04-01T13:16:55;12.20;99.90
54846;DHT22;53889;50.084;8.646;2023-04-01T13:19:27;12.40;99.90
54846;DHT22;53889;50.084;8.646;2023-04-01T13:22:02;12.40;99.90
54846;DHT22;53889;50.084;8.646;2023-04-01T13:24:39;12.60;99.90
54846;DHT22;53889;50.084;8.646;2023-04-01T13:27:11;12.50;99.90
54846;DHT22;53889;50.084;8.646;2023-04-01T13:29:57;12.40;99.90
54846;DHT22;53889;50.084;8.646;2023-04-01T13:32:29;12.40;99.90
54846;DHT22;53889;50.084;8.646;2023-04-01T13:35:10;12.30;99.90
54846;DHT22;53889;50.084;8.646;2023-04-01T13:37:55;14.60;99.90
54846;DHT22;53889;50.084;8.646;2023-04-01T13:40:36;12.30;99.90
54846;DHT22;53889;50.084;8.646;2023-04-01T13:43:12;12.60;99.90
54846;DHT22;53889;50.084;8.646;2023-04-01T13:46:02;12.40;99.90
54846;DHT22;53889;50.084;8.646;2023-04-01T13:48:58;12.60;99.90
54846;DHT22;53889;50.084;8.646;2023-04-01T13:54:40;12.80;99.90
54846;DHT22;53889;50.084;8.646;2023-04-01T13:57:27;12.60;99.90
54846;DHT22;53889;50.084;8.646;2023-04-01T14:00:06;12.60;99.90
54846;DHT22;53889;50.084;8.646;2023-04-01T14:02:51;12.40;99.90
54846;DHT22;53889;50.084;8.646;2023-04-01T14:05:48;12.10;99.90
54846;DHT22;53889;50.084;8.646;2023-04-01T14:08:35;12.30;99.90
54846;DHT22;53889;50.084;8.646;2023-04-01T14:11:12;12.30;99.90
54846;DHT22;53889;50.084;8.646;2023-04-01T14:13:44;12.30;99.90
54846;DHT22;53889;50.084;8.646;2023-04-01T14:16:34;12.20;99.90
54846;DHT22;53889;50.084;8.646;2023-04-01T14:19:18;12.10;99.90
54846;DHT22;53889;50.084;8.646;2023-04-01T14:21:56;12.00;99.90
54846;DHT22;53889;50.084;8.646;2023-04-01T14:24:46;11.90;99.90
54846;DHT22;53889;50.084;8.646;2023-04-01T14:27:36;11.80;99.90
54846;DHT22;53889;50.084;8.646;2023-04-01T14:30:26;11.80;99.90
54846;DHT22;53889;50.084;8.646;2023-04-01T14:33:01;11.80;99.90
54846;DHT22;53889;50.084;8.646;2023-04-01T14:35:37;11.70;99.90
54846;DHT22;53889;50.084;8.646;2023-04-01T14:38:24;11.70;99.90
54846;DHT22;53889;50.084;8.646;2023-04-01T14:40:56;11.70;99.90
54846;DHT22;53889;50.084;8.646;2023-04-01T14:46:47;11.60;99.90
54846;DHT22;53889;50.084;8.646;2023-04-01T14:49:20;11.50;99.90
54846;DHT22;53889;50.084;8.646;2023-04-01T14:51:50;11.50;99.90
54846;DHT22;53889;50.084;8.646;2023-04-01T14:54:20;11.60;99.90
54846;DHT22;53889;50.084;8.646;2023-04-01T14:56:49;11.60;99.90
54846;DHT22;53889;50.084;8.646;2023-04-01T14:59:27;11.60;99.90
54846;DHT22;53889;50.084;8.646;2023-04-01T15:02:00;11.70;99.90
54846;DHT22;53889;50.084;8.646;2023-04-01T15:04:49;11.70;99.90
54846;DHT22;53889;50.084;8.646;2023-04-01T15:07:42;11.80;99.90
54846;DHT22;53889;50.084;8.646;2023-04-01T15:10:24;11.90;99.90
54846;DHT22;53889;50.084;8.646;2023-04-01T15:13:05;11.80;99.90
54846;DHT22;53889;50.084;8.646;2023-04-01T15:15:45;11.90;99.90
54846;DHT22;53889;50.084;8.646;2023-04-01T15:18:18;11.80;99.90
54846;DHT22;53889;50.084;8.646;2023-04-01T15:21:15;11.90;99.90
54846;DHT22;53889;50.084;8.646;2023-04-01T15:23:56;11.90;99.90
54846;DHT22;53889;50.084;8.646;2023-04-01T15:26:39;12.00;99.90
54846;DHT22;53889;50.084;8.646;2023-04-01T15:29:30;12.00;99.90
54846;DHT22;53889;50.084;8.646;2023-04-01T15:32:02;12.00;99.90
54846;DHT22;53889;50.084;8.646;2023-04-01T15:34:36;12.00;99.90
54846;DHT22;53889;50.084;8.646;2023-04-01T15:37:10;12.00;99.90
54846;DHT22;53889;50.084;8.646;2023-04-01T15:39:48;12.00;99.90
54846;DHT22;53889;50.084;8.646;2023-04-01T15:42:31;12.10;99.90
54846;DHT22;53889;50.084;8.646;2023-04-01T15:48:23;12.10;99.90
54846;DHT22;53889;50.084;8.646;2023-04-01T15:51:07;12.20;99.90
54846;DHT22;53889;50.084;8.646;2023-04-01T15:54:00;12.30;99.90
54846;DHT22;53889;50.084;8.646;2023-04-01T15:56:43;12.20;99.90
54846;DHT22;53889;50.084;8.646;2023-04-01T15:59:20;12.10;99.90
54846;DHT22;53889;50.084;8.646;2023-04-01T16:01:55;12.00;99.90
54846;DHT22;53889;50.084;8.646;2023-04-01T16:04:47;11.90;99.90
54846;DHT22;53889;50.084;8.646;2023-04-01T16:07:39;12.00;99.90
54846;DHT22;53889;50.084;8.646;2023-04-01T16:10:19;12.00;99.90
54846;DHT22;53889;50.084;8.646;2023-04-01T16:12:59;12.00;99.90
54846;DHT22;53889;50.084;8.646;2023-04-01T16:15:32;12.30;99.90
54846;DHT22;53889;50.084;8.646;2023-04-01T16:18:23;12.20;99.90
54846;DHT22;53889;50.084;8.646;2023-04-01T16:20:55;12.30;99.90
54846;DHT22;53889;50.084;8.646;2023-04-01T16:23:29;12.20;99.90
54846;DHT22;53889;50.084;8.646;2023-04-01T16:26:05;12.20;99.90
54846;DHT22;53889;50.084;8.646;2023-04-01T16:28:38;12.10;99.90
54846;DHT22;53889;50.084;8.646;2023-04-01T16:31:10;12.10;99.90
54846;DHT22;53889;50.084;8.646;2023-04-01T16:33:45;12.10;99.90
54846;DHT22;53889;50.084;8.646;2023-04-01T16:36:22;12.10;99.90
54846;DHT22;53889;50.084;8.646;2023-04-01T16:38:55;12.00;99.90
54846;DHT22;53889;50.084;8.646;2023-04-01T16:41:27;12.00;99.90
54846;DHT22;53889;50.084;8.646;2023-04-01T16:43:59;11.90;99.90
54846;DHT22;53889;50.084;8.646;2023-04-01T16:46:38;11.50;99.90
54846;DHT22;53889;50.084;8.646;2023-04-01T16:49:39;11.80;99.90
54846;DHT22;53889;50.084;8.646;2023-04-01T16:52:15;11.80;99.90
54846;DHT22;53889;50.084;8.646;2023-04-01T16:54:44;11.70;99.90
54846;DHT22;53889;50.084;8.646;2023-04-01T16:57:18;11.60;99.90
54846;DHT22;53889;50.084;8.646;2023-04-01T16:59:54;11.60;99.90
54846;DHT22;53889;50.084;8.646;2023-04-01T17:02:28;11.70;99.90
54846;DHT22;53889;50.084;8.646;2023-04-01T17:05:00;11.70;99.90
54846;DHT22;53889;50.084;8.646;2023-04-01T17:07:36;11.70;99.90
54846;DHT22;53889;50.084;8.646;2023-04-01T17:10:32;11.70;99.90
54846;DHT22;53889;50.084;8.646;2023-04-01T17:13:24;11.70;99.90
54846;DHT22;53889;50.084;8.646;2023-04-01T17:16:07;11.70;99.90
54846;DHT22;53889;50.084;8.646;2023-04-01T17:18:43;11.70;99.90
54846;DHT22;53889;50.084;8.646;2023-04-01T17:21:17;11.70;99.90
54846;DHT22;53889;50.084;8.646;2023-04-01T17:23:50;11.60;99.90
54846;DHT22;53889;50.084;8.646;2023-04-01T17:26:26;11.60;99.90
54846;DHT22;53889;50.084;8.646;2023-04-01T17:29:00;11.60;99.90
54846;DHT22;53889;50.084;8.646;2023-04-01T17:31:49;11.60;99.90
54846;DHT22;53889;50.084;8.646;2023-04-01T17:34:35;11.50;99.90